Time;durP1;ratioP1;P1;durP2;ratioP2;P2;SDS_P1;SDS_P2;PMS_P1;PMS_P2;Temp;Humidity;BMP_temperature;BMP_pressure;BME280_temperature;BME280_humidity;BME280_pressure;Samples;Min_cycle;Max_cycle;Signal;HPM_P1;HPM_P2
2022/08/07 00:00:44;;;;;;;8.13;6.32;;;16.20;99.90;;;;;;5113645;28;20042;-74
2022/08/07 00:03:10;;;;;;;7.47;6.00;;;16.10;99.90;;;;;;5113662;28;20118;-74
2022/08/07 00:05:36;;;;;;;7.35;6.15;;;16.00;99.90;;;;;;5113772;28;20048;-75
2022/08/07 00:08:03;;;;;;;10.05;6.45;;;15.90;99.90;;;;;;5095393;28;20044;-75
2022/08/07 00:10:30;;;;;;;8.30;5.90;;;16.00;99.90;;;;;;5113562;28;20067;-74
2022/08/07 00:12:57;;;;;;;7.57;5.63;;;15.90;99.90;;;;;;5095082;28;20051;-75
2022/08/07 00:15:24;;;;;;;9.35;6.22;;;15.90;99.90;;;;;;5113263;28;20135;-74
2022/08/07 00:17:50;;;;;;;9.45;5.75;;;15.80;99.90;;;;;;5110065;28;20614;-74
2022/08/07 00:20:16;;;;;;;9.43;6.07;;;15.80;99.90;;;;;;5093000;28;20048;-74
2022/08/07 00:22:41;;;;;;;11.98;6.28;;;15.80;99.90;;;;;;5092994;28;20040;-74
2022/08/07 00:25:08;;;;;;;8.98;5.72;;;15.80;99.90;;;;;;5093104;28;20469;-74
2022/08/07 00:27:35;;;;;;;8.27;5.65;;;15.80;99.90;;;;;;5092915;28;20089;-75
2022/08/07 00:30:02;;;;;;;7.05;5.60;;;16.20;99.90;;;;;;5092999;28;20044;-74
2022/08/07 00:32:28;;;;;;;9.15;5.82;;;15.80;99.90;;;;;;5092650;28;20071;-74
2022/08/07 00:34:54;;;;;;;11.18;5.68;;;15.70;99.90;;;;;;5092930;28;20052;-74
2022/08/07 00:37:20;;;;;;;8.30;5.40;;;15.70;99.90;;;;;;5092922;28;20044;-74
2022/08/07 00:39:46;;;;;;;10.73;5.07;;;15.70;99.90;;;;;;5108396;28;20528;-74
2022/08/07 00:42:11;;;;;;;8.18;5.43;;;15.60;99.90;;;;;;5092854;28;20040;-74
2022/08/07 00:44:37;;;;;;;9.55;5.57;;;15.60;99.90;;;;;;5093125;28;20123;-74
2022/08/07 00:47:05;;;;;;;9.15;5.90;;;15.60;99.90;;;;;;5092545;28;20125;-74
2022/08/07 00:49:31;;;;;;;7.80;6.00;;;15.50;99.90;;;;;;5093024;28;20055;-74
2022/08/07 00:51:57;;;;;;;9.45;6.18;;;15.50;99.90;;;;;;5092514;28;20074;-74
2022/08/07 00:54:23;;;;;;;9.38;5.53;;;15.40;99.90;;;;;;5092509;28;20043;-75
2022/08/07 00:56:49;;;;;;;11.00;6.53;;;15.40;99.90;;;;;;5092737;28;20063;-74
2022/08/07 00:59:16;;;;;;;10.93;6.47;;;15.30;99.90;;;;;;5091334;28;20047;-74
2022/08/07 01:01:42;;;;;;;7.03;5.55;;;15.60;99.90;;;;;;5092512;28;20043;-75
2022/08/07 01:04:08;;;;;;;8.65;5.57;;;15.30;99.90;;;;;;5108052;28;20044;-74
2022/08/07 01:06:34;;;;;;;9.77;6.00;;;15.20;99.90;;;;;;5074435;28;20032;-74
2022/08/07 01:09:01;;;;;;;8.57;5.82;;;15.20;99.90;;;;;;5074759;28;20541;-74
2022/08/07 01:11:30;;;;;;;10.27;6.05;;;15.80;99.90;;;;;;5092144;28;20036;-75
2022/08/07 01:13:56;;;;;;;10.05;5.60;;;15.20;99.90;;;;;;5092344;28;20048;-75
2022/08/07 01:16:22;;;;;;;6.82;5.13;;;15.20;99.90;;;;;;5107878;28;20044;-74
2022/08/07 01:18:48;;;;;;;12.38;5.85;;;15.40;99.90;;;;;;5092758;28;20376;-74
2022/08/07 01:21:19;;;;;;;8.27;5.70;;;15.10;99.90;;;;;;5092479;28;20119;-74
2022/08/07 01:23:46;;;;;;;12.13;5.47;;;15.10;99.90;;;;;;5074140;28;20047;-74
2022/08/07 01:26:15;;;;;;;13.30;5.68;;;15.00;99.90;;;;;;5092326;28;20060;-74
2022/08/07 01:28:46;;;;;;;7.82;5.30;;;15.30;99.90;;;;;;5074004;28;20528;-74
2022/08/07 01:31:12;;;;;;;9.93;5.50;;;14.90;99.90;;;;;;5109847;28;20078;-75
2022/08/07 01:33:38;;;;;;;8.90;5.65;;;14.90;99.90;;;;;;5096058;28;20103;-74
2022/08/07 01:36:08;;;;;;;8.88;6.03;;;14.80;99.90;;;;;;5096172;28;20040;-74
2022/08/07 01:38:34;;;;;;;10.10;5.65;;;14.90;99.90;;;;;;5096197;28;20440;-74
2022/08/07 01:41:02;;;;;;;8.82;5.88;;;14.80;99.90;;;;;;5060969;28;20036;-75
2022/08/07 01:43:29;;;;;;;8.68;5.85;;;14.80;99.90;;;;;;5095767;28;20040;-74
2022/08/07 01:45:56;;;;;;;7.85;5.50;;;14.80;99.90;;;;;;5095958;28;20048;-74
2022/08/07 01:48:22;;;;;;;9.20;5.70;;;14.80;99.90;;;;;;5095954;28;20082;-74
2022/08/07 01:51:01;;;;;;;9.82;5.97;;;14.80;99.90;;;;;;5077535;28;20055;-75
2022/08/07 01:53:30;;;;;;;8.77;6.30;;;14.90;99.90;;;;;;5111408;28;20044;-74
2022/08/07 01:56:04;;;;;;;9.18;6.25;;;14.70;99.90;;;;;;5095705;28;20059;-75
2022/08/07 01:58:33;;;;;;;10.02;6.25;;;14.60;99.90;;;;;;5095743;28;20089;-75
2022/08/07 02:01:06;;;;;;;8.90;6.43;;;14.60;99.90;;;;;;5095712;28;20103;-74
2022/08/07 02:03:34;;;;;;;9.55;6.10;;;14.40;99.90;;;;;;5095473;28;20487;-74
2022/08/07 02:06:05;;;;;;;9.93;6.57;;;14.50;99.90;;;;;;5095762;28;20055;-74
2022/08/07 02:08:36;;;;;;;8.45;5.75;;;14.40;99.90;;;;;;5095618;28;20047;-74
2022/08/07 02:11:04;;;;;;;9.43;6.03;;;14.40;99.90;;;;;;5111398;28;20044;-74
2022/08/07 02:13:32;;;;;;;9.15;6.30;;;14.70;99.90;;;;;;5095106;28;20126;-74
2022/08/07 02:16:01;;;;;;;10.43;6.68;;;14.40;99.90;;;;;;5094594;28;20127;-74
2022/08/07 02:18:30;;;;;;;9.35;6.90;;;14.80;99.90;;;;;;5094618;28;20036;-74
2022/08/07 02:21:00;;;;;;;10.13;6.53;;;14.40;99.90;;;;;;5095232;28;20051;-74
2022/08/07 02:23:27;;;;;;;9.90;6.93;;;14.60;99.90;;;;;;5095079;28;20044;-74
2022/08/07 02:25:54;;;;;;;8.88;6.70;;;14.40;99.90;;;;;;5095276;28;20051;-74
2022/08/07 02:28:20;;;;;;;10.00;6.63;;;14.40;99.90;;;;;;5077197;28;20039;-74
2022/08/07 02:30:47;;;;;;;10.15;6.60;;;14.80;99.90;;;;;;5094783;28;20488;-74
2022/08/07 02:33:14;;;;;;;9.80;6.85;;;14.40;99.90;;;;;;5095051;28;20405;-75
2022/08/07 02:35:41;;;;;;;11.10;6.63;;;14.20;99.90;;;;;;5094899;28;20052;-75
2022/08/07 02:38:07;;;;;;;10.57;6.68;;;14.10;99.90;;;;;;5094880;28;20044;-75
2022/08/07 02:40:34;;;;;;;10.05;6.53;;;14.50;99.90;;;;;;5095098;28;20049;-75
2022/08/07 02:43:01;;;;;;;11.70;6.60;;;13.90;99.90;;;;;;5094123;28;20055;-75
2022/08/07 02:45:29;;;;;;;10.05;6.28;;;13.90;99.90;;;;;;5094980;28;20123;-75
2022/08/07 02:47:55;;;;;;;9.93;6.80;;;13.90;99.90;;;;;;5094757;28;20437;-75
2022/08/07 02:50:21;;;;;;;8.93;6.18;;;13.80;99.90;;;;;;5076641;28;20040;-75
2022/08/07 02:52:58;;;;;;;10.55;6.07;;;13.80;99.90;;;;;;5076268;28;20108;-75
2022/08/07 02:55:30;;;;;;;9.68;6.40;;;13.70;99.90;;;;;;5094210;28;20059;-76
2022/08/07 02:58:01;;;;;;;7.72;6.00;;;14.50;99.90;;;;;;5075242;28;20115;-76
2022/08/07 03:00:29;;;;;;;9.02;5.70;;;13.60;99.90;;;;;;5094565;28;20040;-75
2022/08/07 03:02:56;;;;;;;7.70;5.47;;;13.60;99.90;;;;;;5110364;28;20423;-75
2022/08/07 03:05:22;;;;;;;8.90;5.95;;;13.70;99.90;;;;;;5109902;28;20039;-75
2022/08/07 03:07:49;;;;;;;8.05;5.28;;;13.80;99.90;;;;;;5079823;28;20059;-75
2022/08/07 03:10:16;;;;;;;8.60;5.53;;;14.00;99.90;;;;;;5093253;28;20036;-75
2022/08/07 03:12:44;;;;;;;8.95;5.65;;;13.80;99.90;;;;;;5075842;28;20048;-75
2022/08/07 03:15:11;;;;;;;7.88;5.40;;;14.30;99.90;;;;;;5109781;28;20047;-75
2022/08/07 03:17:37;;;;;;;7.65;5.53;;;13.90;99.90;;;;;;5094072;28;20056;-75
2022/08/07 03:20:05;;;;;;;9.30;5.03;;;14.10;99.90;;;;;;5093984;28;20047;-75
2022/08/07 03:22:31;;;;;;;8.27;4.90;;;13.90;99.90;;;;;;5076013;28;20072;-75
2022/08/07 03:24:58;;;;;;;7.90;4.80;;;14.00;99.90;;;;;;5094093;28;20059;-76
2022/08/07 03:27:25;;;;;;;10.48;5.15;;;14.00;99.90;;;;;;5094107;28;20051;-75
2022/08/07 03:29:51;;;;;;;8.05;5.13;;;14.70;99.90;;;;;;5093743;28;20481;-76
2022/08/07 03:32:32;;;;;;;6.38;4.80;;;14.10;99.90;;;;;;5093503;28;20210;-75
2022/08/07 03:35:02;;;;;;;11.63;5.15;;;14.20;99.90;;;;;;5093679;28;20040;-76
2022/08/07 03:37:33;;;;;;;9.50;5.50;;;14.10;99.90;;;;;;5093827;28;20050;-75
2022/08/07 03:39:59;;;;;;;7.72;5.13;;;14.20;99.90;;;;;;5093829;28;20040;-76
2022/08/07 03:42:25;;;;;;;8.23;5.68;;;14.10;99.90;;;;;;5093603;28;20105;-75
2022/08/07 03:44:51;;;;;;;12.90;5.68;;;14.10;99.90;;;;;;5092211;28;20046;-75
2022/08/07 03:47:17;;;;;;;7.55;5.68;;;14.40;99.90;;;;;;5093395;28;20051;-75
2022/08/07 03:49:44;;;;;;;10.07;6.05;;;14.70;99.90;;;;;;5093463;28;20081;-76
2022/08/07 03:52:11;;;;;;;9.75;6.25;;;14.10;99.90;;;;;;5093339;28;20127;-75
2022/08/07 03:54:36;;;;;;;7.72;5.40;;;14.10;99.90;;;;;;5092761;28;20051;-76
2022/08/07 03:57:04;;;;;;;10.50;6.13;;;14.00;99.90;;;;;;5075295;28;20039;-75
2022/08/07 03:59:31;;;;;;;7.85;5.45;;;14.00;99.90;;;;;;5092553;28;20559;-75
2022/08/07 04:01:57;;;;;;;9.55;6.18;;;14.30;99.90;;;;;;5093063;28;20092;-75
2022/08/07 04:04:24;;;;;;;7.78;5.60;;;14.00;99.90;;;;;;5074860;28;20044;-75
2022/08/07 04:06:51;;;;;;;9.13;5.70;;;14.00;99.90;;;;;;5075575;28;20059;-75
2022/08/07 04:09:18;;;;;;;16.85;5.38;;;13.90;99.90;;;;;;5108773;28;20044;-75
2022/08/07 04:11:45;;;;;;;9.93;5.85;;;13.90;99.90;;;;;;5091992;28;20476;-75
2022/08/07 04:14:11;;;;;;;8.32;5.45;;;14.00;99.90;;;;;;5091814;28;20043;-75
2022/08/07 04:16:37;;;;;;;9.48;5.47;;;14.00;99.90;;;;;;5074657;28;20040;-76
2022/08/07 04:19:04;;;;;;;8.00;5.55;;;14.00;99.90;;;;;;5092869;28;20044;-75
2022/08/07 04:21:30;;;;;;;7.85;5.15;;;14.00;99.90;;;;;;5093112;28;20079;-76
2022/08/07 04:23:56;;;;;;;9.68;5.63;;;14.00;99.90;;;;;;5093061;28;20062;-75
2022/08/07 04:26:22;;;;;;;7.50;5.03;;;14.30;99.90;;;;;;5092907;28;20434;-75
2022/08/07 04:28:48;;;;;;;8.85;5.38;;;14.00;99.90;;;;;;5092973;28;20040;-75
2022/08/07 04:31:15;;;;;;;9.50;5.30;;;14.60;99.90;;;;;;5092753;28;20572;-75
2022/08/07 04:33:41;;;;;;;7.28;4.90;;;14.00;99.90;;;;;;5092374;28;20058;-76
2022/08/07 04:36:07;;;;;;;7.45;5.28;;;14.00;99.90;;;;;;5094398;28;20040;-75
2022/08/07 04:38:34;;;;;;;7.28;4.70;;;14.00;99.90;;;;;;5113200;28;20468;-75
2022/08/07 04:41:00;;;;;;;7.20;5.00;;;14.10;99.90;;;;;;5094057;28;20200;-75
2022/08/07 04:43:33;;;;;;;9.30;5.35;;;14.10;99.90;;;;;;5092717;28;20514;-75
2022/08/07 04:46:08;;;;;;;7.65;5.32;;;14.00;99.90;;;;;;5092709;28;20048;-75
2022/08/07 04:49:09;;;;;;;8.93;5.30;;;14.00;99.90;;;;;;5092741;28;20048;-75
2022/08/07 04:51:56;;;;;;;8.77;5.40;;;14.00;99.90;;;;;;5065825;28;20125;-75
2022/08/07 04:54:32;;;;;;;7.72;4.90;;;14.00;99.90;;;;;;5092573;28;20071;-75
2022/08/07 04:57:31;;;;;;;9.02;5.40;;;14.00;99.90;;;;;;5108233;28;20097;-75
2022/08/07 05:00:15;;;;;;;7.28;5.15;;;14.10;99.90;;;;;;5106982;28;20143;-76
2022/08/07 05:03:16;;;;;;;7.90;5.20;;;14.10;99.90;;;;;;5072696;28;20485;-75
2022/08/07 05:06:10;;;;;;;7.90;5.20;;;14.10;99.90;;;;;;5053926;28;20451;-75
2022/08/07 05:08:50;;;;;;;8.07;4.97;;;14.20;99.90;;;;;;5056404;28;20056;-76
2022/08/07 05:11:27;;;;;;;7.40;4.85;;;14.20;99.90;;;;;;5096711;28;20408;-75
2022/08/07 05:14:10;;;;;;;8.65;4.72;;;14.20;99.90;;;;;;5096470;28;20200;-75
2022/08/07 05:16:38;;;;;;;8.95;5.20;;;14.70;99.90;;;;;;5096032;28;20040;-76
2022/08/07 05:19:12;;;;;;;7.05;4.80;;;14.50;99.90;;;;;;5095956;28;20048;-73
2022/08/07 05:21:46;;;;;;;7.38;4.50;;;14.20;99.90;;;;;;5096479;28;20123;-73
2022/08/07 05:24:16;;;;;;;8.25;4.78;;;14.20;99.90;;;;;;5096182;28;20044;-75
2022/08/07 05:26:43;;;;;;;7.80;5.10;;;14.30;99.90;;;;;;5095002;28;20043;-75
2022/08/07 05:29:12;;;;;;;7.10;5.05;;;14.20;99.90;;;;;;5096345;28;20058;-73
2022/08/07 05:31:40;;;;;;;6.28;4.50;;;14.70;99.90;;;;;;5077718;28;20074;-75
2022/08/07 05:34:09;;;;;;;8.45;4.65;;;14.20;99.90;;;;;;5077825;28;20050;-76
2022/08/07 05:36:37;;;;;;;7.53;4.82;;;14.50;99.90;;;;;;5077811;28;20052;-73
2022/08/07 05:39:04;;;;;;;6.70;4.45;;;14.80;99.90;;;;;;5096134;28;20476;-76
2022/08/07 05:41:30;;;;;;;6.38;4.40;;;14.30;99.90;;;;;;5077642;28;20051;-76
2022/08/07 05:43:57;;;;;;;6.82;4.57;;;14.40;99.90;;;;;;5077907;28;20174;-75
2022/08/07 05:46:23;;;;;;;6.18;4.50;;;14.40;99.90;;;;;;5095957;28;20097;-76
2022/08/07 05:48:52;;;;;;;9.98;4.55;;;14.50;99.90;;;;;;5095969;28;20055;-75
2022/08/07 05:51:19;;;;;;;7.15;4.93;;;15.10;99.90;;;;;;5077539;28;20044;-75
2022/08/07 05:53:45;;;;;;;8.02;4.50;;;14.50;99.90;;;;;;5111286;28;20146;-75
2022/08/07 05:56:14;;;;;;;6.80;4.47;;;14.60;99.90;;;;;;5095742;28;20070;-75
2022/08/07 05:58:41;;;;;;;6.20;4.65;;;14.70;99.90;;;;;;5095751;28;20044;-76
2022/08/07 06:01:09;;;;;;;8.45;4.50;;;15.20;99.90;;;;;;5077422;28;20506;-75
2022/08/07 06:03:36;;;;;;;8.65;4.25;;;14.80;99.90;;;;;;5095404;28;20047;-76
2022/08/07 06:06:03;;;;;;;7.78;4.60;;;15.20;99.90;;;;;;5077278;28;20047;-75
2022/08/07 06:08:29;;;;;;;9.07;4.35;;;14.90;99.90;;;;;;5095820;28;20080;-75
2022/08/07 06:10:55;;;;;;;8.98;4.22;;;14.90;99.90;;;;;;5095471;28;20048;-76
2022/08/07 06:13:21;;;;;;;7.60;4.50;;;15.00;99.90;;;;;;5077139;28;20446;-75
2022/08/07 06:15:48;;;;;;;6.50;4.32;;;15.00;99.90;;;;;;5094588;28;20052;-75
2022/08/07 06:18:14;;;;;;;6.00;4.22;;;15.80;99.90;;;;;;5076982;28;20044;-76
2022/08/07 06:20:42;;;;;;;7.88;4.28;;;15.80;99.90;;;;;;5095176;28;20520;-75
2022/08/07 06:23:09;;;;;;;13.18;4.20;;;15.20;99.90;;;;;;5095135;28;20397;-75
2022/08/07 06:25:35;;;;;;;7.15;4.40;;;15.30;99.90;;;;;;5095068;28;20101;-75
2022/08/07 06:28:09;;;;;;;8.50;4.38;;;15.30;99.90;;;;;;5095259;28;20048;-75
2022/08/07 06:30:35;;;;;;;8.63;4.53;;;15.30;99.90;;;;;;5094977;28;20048;-76
2022/08/07 06:33:01;;;;;;;6.70;4.35;;;15.40;99.90;;;;;;5095061;28;20056;-75
2022/08/07 06:35:27;;;;;;;7.90;4.35;;;16.00;99.90;;;;;;5076388;28;20043;-75
2022/08/07 06:37:53;;;;;;;5.53;3.90;;;15.50;99.90;;;;;;5076260;28;20131;-76
2022/08/07 06:40:19;;;;;;;6.72;4.30;;;15.60;99.90;;;;;;5076502;28;20396;-73
2022/08/07 06:42:48;;;;;;;6.90;3.65;;;15.60;99.90;;;;;;5076149;28;20405;-76
2022/08/07 06:45:16;;;;;;;5.38;3.97;;;15.70;99.90;;;;;;5094112;28;20064;-76
2022/08/07 06:47:42;;;;;;;6.38;3.67;;;15.80;99.90;;;;;;5094249;28;20043;-75
2022/08/07 06:50:09;;;;;;;5.95;4.20;;;15.90;99.90;;;;;;5094126;28;20075;-75
2022/08/07 06:52:52;;;;;;;5.43;4.25;;;15.90;99.90;;;;;;5094012;28;20358;-76
2022/08/07 06:55:27;;;;;;;7.40;4.40;;;16.20;99.90;;;;;;5094116;28;20055;-76
2022/08/07 06:57:58;;;;;;;8.15;4.05;;;16.00;99.90;;;;;;5109929;28;20044;-75
2022/08/07 07:00:24;;;;;;;6.75;3.72;;;16.10;99.90;;;;;;5075899;28;20048;-76
2022/08/07 07:02:51;;;;;;;5.75;3.95;;;16.10;99.90;;;;;;5093969;28;20119;-76
2022/08/07 07:05:20;;;;;;;7.07;3.75;;;16.30;99.90;;;;;;5075636;28;20449;-75
2022/08/07 07:07:45;;;;;;;5.75;3.90;;;16.20;99.90;;;;;;5109660;28;20133;-76
2022/08/07 07:10:13;;;;;;;6.15;3.30;;;16.30;99.90;;;;;;5092799;28;20101;-76
2022/08/07 07:12:50;;;;;;;5.10;3.70;;;16.40;99.90;;;;;;5093845;28;20044;-76
2022/08/07 07:15:20;;;;;;;4.75;3.20;;;16.40;99.90;;;;;;5075539;28;20047;-75
2022/08/07 07:18:07;;;;;;;5.10;3.38;;;16.50;99.90;;;;;;5093858;28;20169;-76
2022/08/07 07:20:37;;;;;;;4.30;2.85;;;16.60;99.90;;;;;;5093808;28;20435;-76
2022/08/07 07:23:05;;;;;;;7.78;2.88;;;16.70;99.90;;;;;;5093418;28;20047;-76
2022/08/07 07:25:33;;;;;;;4.03;2.83;;;17.50;99.90;;;;;;5093016;28;20115;-73
2022/08/07 07:28:04;;;;;;;5.07;2.92;;;16.80;99.90;;;;;;5093264;28;20381;-75
2022/08/07 07:30:36;;;;;;;4.80;2.80;;;16.80;99.90;;;;;;5093304;28;20040;-75
2022/08/07 07:33:03;;;;;;;5.47;3.17;;;17.00;99.90;;;;;;5093626;28;20377;-75
2022/08/07 07:35:32;;;;;;;5.57;3.00;;;17.00;99.90;;;;;;5093667;28;20046;-75
2022/08/07 07:38:01;;;;;;;4.93;2.75;;;17.00;99.90;;;;;;5093185;28;20040;-75
2022/08/07 07:40:29;;;;;;;5.70;3.10;;;17.10;99.90;;;;;;5075506;28;20071;-75
2022/08/07 07:42:56;;;;;;;5.93;3.35;;;17.10;99.90;;;;;;5093299;28;20066;-75
2022/08/07 07:45:26;;;;;;;5.60;3.22;;;17.50;99.90;;;;;;5093298;28;20050;-75
2022/08/07 07:47:53;;;;;;;5.85;3.30;;;17.30;99.90;;;;;;5093732;28;20467;-75
2022/08/07 07:50:23;;;;;;;5.43;3.80;;;17.30;99.90;;;;;;5092958;28;20068;-75
2022/08/07 07:52:51;;;;;;;7.10;3.70;;;17.40;99.90;;;;;;5092782;28;20047;-75
2022/08/07 07:55:18;;;;;;;6.28;4.15;;;18.10;99.90;;;;;;5074456;28;20480;-75
2022/08/07 07:57:47;;;;;;;7.63;4.38;;;17.60;99.90;;;;;;5089072;28;20095;-75
2022/08/07 08:00:13;;;;;;;5.85;4.10;;;17.60;99.90;;;;;;5113867;28;20044;-75
2022/08/07 08:02:41;;;;;;;7.20;4.53;;;17.60;99.90;;;;;;5113251;28;20071;-75
2022/08/07 08:05:08;;;;;;;5.88;3.83;;;17.80;99.90;;;;;;5113368;28;20044;-75
2022/08/07 08:07:36;;;;;;;7.65;4.28;;;17.70;99.90;;;;;;5107115;28;20476;-75
2022/08/07 08:10:04;;;;;;;6.65;4.47;;;17.80;99.90;;;;;;5074643;28;20043;-75
2022/08/07 08:12:32;;;;;;;5.72;4.32;;;17.90;99.90;;;;;;5092763;28;20048;-75
2022/08/07 08:14:59;;;;;;;5.85;3.85;;;17.90;99.90;;;;;;5074595;28;20044;-76
2022/08/07 08:17:26;;;;;;;7.03;3.83;;;18.00;99.90;;;;;;5092704;28;20048;-75
2022/08/07 08:19:55;;;;;;;6.93;3.85;;;18.40;99.90;;;;;;5092952;28;20047;-75
2022/08/07 08:27:54;;;;;;;7.43;4.27;;;18.10;99.90;;;;;;5092691;28;20536;-74
2022/08/07 08:30:21;;;;;;;7.63;4.40;;;18.20;99.90;;;;;;5074607;28;20052;-75
2022/08/07 08:32:52;;;;;;;5.60;4.18;;;18.30;99.90;;;;;;5074475;28;20059;-75
2022/08/07 08:35:22;;;;;;;8.00;4.30;;;18.40;99.90;;;;;;5092608;28;20059;-75
2022/08/07 08:37:56;;;;;;;9.82;4.38;;;18.60;99.90;;;;;;5091788;28;21352;-75
2022/08/07 08:40:36;;;;;;;7.40;4.13;;;18.80;99.90;;;;;;5092378;28;20052;-75
2022/08/07 08:43:13;;;;;;;6.95;3.90;;;19.10;99.90;;;;;;5074489;28;20048;-75
2022/08/07 08:45:56;;;;;;;5.45;3.90;;;19.20;99.90;;;;;;5092222;28;20169;-75
2022/08/07 08:48:44;;;;;;;6.32;3.70;;;19.30;99.90;;;;;;5092892;28;20426;-74
2022/08/07 08:51:17;;;;;;;7.22;3.90;;;19.30;99.90;;;;;;5074736;28;20397;-74
2022/08/07 08:53:48;;;;;;;5.03;3.50;;;19.30;99.90;;;;;;5074103;28;20044;-75
2022/08/07 08:56:20;;;;;;;7.32;3.50;;;19.50;99.90;;;;;;5092747;28;20040;-75
2022/08/07 08:58:55;;;;;;;5.20;3.80;;;19.50;99.90;;;;;;5092520;28;20055;-74
2022/08/07 09:01:27;;;;;;;6.03;3.88;;;19.70;99.90;;;;;;5092372;28;20134;-75
2022/08/07 09:04:44;;;;;;;7.13;4.13;;;19.80;99.90;;;;;;5092440;28;20051;-75
2022/08/07 09:07:41;;;;;;;4.93;3.65;;;19.80;99.90;;;;;;5047394;28;20059;-76
2022/08/07 09:10:20;;;;;;;5.07;3.55;;;20.00;99.90;;;;;;5074253;28;20048;-76
2022/08/07 09:12:58;;;;;;;5.70;3.55;;;20.10;99.90;;;;;;5092363;28;20488;-77
2022/08/07 09:15:30;;;;;;;4.82;3.70;;;20.20;99.90;;;;;;5092502;28;20093;-74
2022/08/07 09:18:14;;;;;;;6.25;3.60;;;20.30;99.90;;;;;;5074392;28;20127;-76
2022/08/07 09:20:52;;;;;;;6.65;3.20;;;20.30;99.90;;;;;;5092327;28;20055;-77
2022/08/07 09:23:42;;;;;;;5.90;3.50;;;20.50;99.90;;;;;;5057547;28;20059;-74
2022/08/07 09:26:55;;;;;;;5.32;3.35;;;21.00;99.90;;;;;;5072734;28;20044;-74
2022/08/07 09:29:32;;;;;;;4.82;3.20;;;20.70;99.90;;;;;;5086051;28;20097;-75
2022/08/07 09:32:26;;;;;;;5.03;3.22;;;20.80;99.90;;;;;;5073536;28;20110;-74
2022/08/07 09:34:57;;;;;;;4.68;3.40;;;21.00;99.90;;;;;;5091933;28;20532;-75
2022/08/07 09:37:43;;;;;;;3.80;2.58;;;20.90;99.90;;;;;;5092218;28;20400;-76
2022/08/07 09:40:31;;;;;;;5.40;3.00;;;21.00;99.90;;;;;;5058190;28;20396;-75
2022/08/07 09:43:17;;;;;;;4.70;2.92;;;21.20;99.90;;;;;;5092096;28;20036;-75
2022/08/07 09:46:12;;;;;;;5.53;3.03;;;21.40;99.90;;;;;;5091882;28;20082;-75
2022/08/07 09:48:56;;;;;;;5.15;3.22;;;21.70;99.80;;;;;;5091889;28;20181;-75
2022/08/07 09:51:56;;;;;;;4.00;2.78;;;21.70;99.00;;;;;;5092351;28;20131;-75
2022/08/07 09:54:32;;;;;;;5.75;2.83;;;22.00;99.00;;;;;;5095278;28;20075;-75
2022/08/07 09:57:23;;;;;;;4.65;2.85;;;22.40;97.40;;;;;;5077217;28;20052;-75
2022/08/07 09:59:51;;;;;;;3.92;2.58;;;23.00;96.20;;;;;;5095760;28;20047;-75
2022/08/07 10:02:42;;;;;;;4.25;2.65;;;24.20;95.60;;;;;;5095429;28;20463;-75
2022/08/07 10:05:39;;;;;;;4.53;2.72;;;26.40;94.80;;;;;;5076976;28;20044;-74
2022/08/07 10:08:34;;;;;;;3.70;2.70;;;28.50;91.70;;;;;;5076934;28;20048;-75
2022/08/07 10:11:19;;;;;;;5.10;2.40;;;30.60;88.70;;;;;;5077389;28;20398;-75
2022/08/07 10:13:47;;;;;;;5.05;2.55;;;33.10;82.10;;;;;;5095245;28;20050;-75
2022/08/07 10:16:45;;;;;;;3.53;2.20;;;35.00;79.10;;;;;;5095197;28;20044;-76
2022/08/07 10:19:59;;;;;;;3.60;2.20;;;36.20;71.30;;;;;;5095301;28;20051;-76
2022/08/07 10:22:28;;;;;;;6.45;2.10;;;38.30;67.50;;;;;;5095029;28;20412;-77
2022/08/07 10:25:05;;;;;;;4.07;1.98;;;37.70;62.70;;;;;;5095199;28;20487;-76
2022/08/07 10:27:45;;;;;;;4.32;2.20;;;38.90;64.60;;;;;;5094993;28;20090;-76
2022/08/07 10:30:44;;;;;;;4.40;2.20;;;41.10;61.90;;;;;;5095512;28;20044;-76
2022/08/07 10:33:38;;;;;;;2.45;1.90;;;42.40;60.40;;;;;;5094989;28;20094;-76
2022/08/07 10:36:34;;;;;;;3.50;1.97;;;42.90;56.50;;;;;;5094916;28;20389;-76
2022/08/07 10:39:48;;;;;;;5.55;2.00;;;40.90;56.80;;;;;;5076643;28;20052;-76
2022/08/07 10:42:22;;;;;;;4.18;1.90;;;39.40;57.50;;;;;;5087200;28;20150;-77
2022/08/07 10:45:16;;;;;;;2.67;1.77;;;40.10;57.80;;;;;;5076359;28;20040;-77
2022/08/07 10:47:57;;;;;;;4.35;2.00;;;39.30;53.30;;;;;;5094706;28;20048;-76
2022/08/07 10:50:27;;;;;;;2.60;1.85;;;40.70;55.90;;;;;;5110346;28;20079;-76
2022/08/07 10:53:20;;;;;;;2.65;1.60;;;41.20;54.70;;;;;;5094224;28;20100;-77
2022/08/07 10:55:58;;;;;;;2.97;1.85;;;42.40;53.70;;;;;;5093962;28;20040;-77
2022/08/07 10:58:43;;;;;;;2.78;1.65;;;42.80;54.20;;;;;;5076265;28;20139;-76
2022/08/07 11:01:22;;;;;;;2.40;1.80;;;41.40;51.30;;;;;;5093987;28;20046;-76
2022/08/07 11:03:52;;;;;;;4.10;1.80;;;40.80;52.30;;;;;;5093806;28;20049;-76
2022/08/07 11:06:24;;;;;;;3.78;1.75;;;40.50;53.70;;;;;;5092572;28;20044;-76
2022/08/07 11:09:01;;;;;;;3.35;1.80;;;39.60;54.70;;;;;;5094310;28;20476;-76
2022/08/07 11:11:44;;;;;;;2.95;1.98;;;39.10;55.10;;;;;;5094168;28;20122;-76
2022/08/07 11:14:22;;;;;;;3.90;1.85;;;37.60;54.30;;;;;;5075362;28;20058;-75
2022/08/07 11:16:54;;;;;;;3.90;1.90;;;35.60;55.90;;;;;;5093914;28;20499;-75
2022/08/07 11:19:28;;;;;;;3.15;1.80;;;35.10;57.80;;;;;;5093539;28;20058;-75
2022/08/07 11:22:33;;;;;;;3.03;1.83;;;35.60;58.20;;;;;;5094018;28;20086;-75
2022/08/07 11:25:04;;;;;;;4.85;1.98;;;37.30;58.30;;;;;;5093745;28;20089;-76
2022/08/07 11:27:55;;;;;;;3.00;1.90;;;36.20;56.90;;;;;;5093453;28;20043;-75
2022/08/07 11:30:27;;;;;;;3.35;2.20;;;35.20;57.50;;;;;;5093724;28;20044;-75
2022/08/07 11:33:19;;;;;;;3.60;2.10;;;36.70;58.30;;;;;;5075319;28;20094;-75
2022/08/07 11:36:12;;;;;;;3.55;2.10;;;40.10;56.70;;;;;;5075067;28;20135;-76
2022/08/07 11:39:04;;;;;;;3.92;1.70;;;43.80;55.20;;;;;;5090891;28;20044;-75
2022/08/07 11:41:41;;;;;;;2.85;1.60;;;45.60;52.40;;;;;;5093351;28;20050;-75
2022/08/07 11:44:54;;;;;;;2.60;1.60;;;47.40;53.00;;;;;;5093425;28;20460;-76
2022/08/07 11:47:57;;;;;;;3.13;1.70;;;49.10;51.90;;;;;;5093256;28;20508;-76
2022/08/07 11:50:42;;;;;;;4.78;1.90;;;47.00;49.50;;;;;;5093541;28;20076;-75
2022/08/07 11:53:29;;;;;;;3.40;1.92;;;43.10;50.40;;;;;;5093386;28;20132;-74
2022/08/07 11:56:13;;;;;;;6.03;1.95;;;39.90;52.10;;;;;;5092954;28;20401;-75
2022/08/07 11:58:59;;;;;;;3.42;2.00;;;38.20;53.40;;;;;;5093165;28;20051;-74
2022/08/07 12:01:48;;;;;;;3.00;1.70;;;36.80;53.60;;;;;;5093349;28;20392;-75
2022/08/07 12:04:39;;;;;;;3.65;1.90;;;37.30;54.80;;;;;;5074688;28;20524;-76
2022/08/07 12:07:11;;;;;;;4.20;1.70;;;39.60;53.90;;;;;;5092919;28;20043;-75
2022/08/07 12:09:47;;;;;;;3.58;1.83;;;39.20;52.60;;;;;;5093202;28;20074;-75
2022/08/07 12:12:41;;;;;;;2.88;1.60;;;37.40;52.00;;;;;;5093046;28;20404;-75
2022/08/07 12:15:19;;;;;;;2.75;1.80;;;36.90;53.70;;;;;;5090344;28;20059;-75
2022/08/07 12:17:50;;;;;;;3.40;1.75;;;39.10;54.30;;;;;;5074571;28;20048;-75
2022/08/07 12:20:28;;;;;;;3.05;1.60;;;40.50;53.40;;;;;;5074687;28;20052;-76
2022/08/07 12:23:16;;;;;;;3.00;1.58;;;42.40;53.10;;;;;;5074545;28;20458;-76
2022/08/07 12:25:55;;;;;;;3.55;1.70;;;43.00;51.40;;;;;;5091523;28;20040;-75
2022/08/07 12:28:52;;;;;;;3.13;1.65;;;40.70;50.90;;;;;;5092278;28;20377;-75
2022/08/07 12:31:42;;;;;;;3.75;1.60;;;38.80;51.90;;;;;;5074003;28;20113;-75
2022/08/07 12:34:11;;;;;;;2.53;1.63;;;36.40;53.20;;;;;;5054195;28;20097;-75
2022/08/07 12:36:39;;;;;;;3.65;1.70;;;34.80;54.50;;;;;;5092413;28;20040;-75
2022/08/07 12:39:06;;;;;;;3.20;1.75;;;33.00;55.50;;;;;;5092954;28;20130;-75
2022/08/07 12:41:34;;;;;;;3.50;2.03;;;31.90;57.00;;;;;;5074500;28;20039;-75
2022/08/07 12:44:05;;;;;;;4.13;2.17;;;30.60;59.20;;;;;;5092674;28;20055;-75
2022/08/07 12:46:41;;;;;;;4.78;2.10;;;29.60;61.30;;;;;;5074591;28;20044;-75
2022/08/07 12:49:07;;;;;;;3.80;2.20;;;28.90;62.50;;;;;;5092605;28;20040;-75
2022/08/07 12:51:41;;;;;;;5.07;2.50;;;28.30;64.10;;;;;;5092065;28;20043;-75
2022/08/07 12:54:27;;;;;;;;;;;27.70;65.50;;;;;;5074658;28;20044;-75
2022/08/07 12:56:55;;;;;;;6.15;2.60;;;27.20;67.70;;;;;;5091840;28;20288;-75
2022/08/07 12:59:26;;;;;;;4.20;2.40;;;27.10;66.90;;;;;;5092266;28;20120;-75
2022/08/07 13:02:06;;;;;;;3.83;2.30;;;26.70;68.10;;;;;;5092356;28;20154;-75
2022/08/07 13:05:02;;;;;;;4.88;2.22;;;26.50;68.60;;;;;;5074388;28;20046;-75
2022/08/07 13:07:46;;;;;;;;;;;26.40;69.60;;;;;;5074650;28;20100;-75
2022/08/07 13:10:31;;;;;;;5.50;2.50;;;26.20;70.00;;;;;;5074248;28;19990;-75
2022/08/07 13:13:01;;;;;;;;;;;26.00;69.70;;;;;;5092759;28;20427;-75
2022/08/07 13:15:32;;;;;;;3.65;2.30;;;25.70;70.90;;;;;;5092304;28;19923;-75
2022/08/07 13:18:08;;;;;;;5.05;2.40;;;25.50;70.20;;;;;;5092089;28;20055;-75
2022/08/07 13:20:45;;;;;;;5.25;2.45;;;25.60;70.50;;;;;;5092026;28;20050;-75
2022/08/07 13:23:33;;;;;;;5.68;2.50;;;25.50;70.50;;;;;;5073334;28;20048;-75